Terminal Aerodrome Forecast
Issued by NWS Huntsville, AL

Home | Current Version | Previous Version | Text Only | Print | Product List | Glossary On
Versions: 1 2 3 4 5 6 7 8 9 10 11 12 13 14 15 16
000
FTUS44 KHUN 240525
TAFMSL
TAF
KMSL 240525Z 2406/2506 16007KT P6SM FEW250
     FM241100 15010KT P6SM BKN025
     FM241600 20014G21KT P6SM BKN040
     FM250100 21012KT 5SM -SHRA OVC030
     FM250500 29012KT 5SM -SHRA OVC020=

USA.gov is the U.S. government's official web portal to all federal, state and local government web resources and services.